Lincoln, Montana
Current Conditions -  °F | °C
As of 8:53 PM on Tuesday 21 Oct 2014 (Local Time) from KHLN Reporting Station
Few Clouds Few Clouds  
Wind Chill: 43°   Ceiling: Unl
Heat Index: 48°   Visibility: 10mi
Dew Point: 35°   Wind: 10mph
Humidity: 61%   Direction: 260°W
Pressure: 29.96"   Gusts: NA
Location:  46.95°N, 112.68°W
Report Text: KHLN 220253Z 26009KT 10SM FEW047 09/02 A2996 RMK AO2 SLP163 T00890017 51017
Loading
Personal Weather Stations






























Interactive Weather Map
Tropical Storm Tracking
New forecast layout! Learn more

10-Day Weather Forecast

Advertisements
Track Severe Weather on mobile